createdAt,value
2022-08-07T00:01:43.322Z,97650.22
2022-08-07T00:06:29.594Z,97674.91
2022-08-07T00:11:39.989Z,97564.38
2022-08-07T00:16:59.039Z,97571.25
2022-08-07T00:22:03.482Z,97591.59
2022-08-07T00:27:07.761Z,97577.66
2022-08-07T00:32:14.665Z,97528.34
2022-08-07T00:37:19.334Z,97591.50
2022-08-07T00:42:29.204Z,97576.84
2022-08-07T00:48:10.305Z,97639.38
2022-08-07T00:52:56.155Z,97564.59
2022-08-07T00:57:59.472Z,97610.53
2022-08-07T01:03:03.434Z,97647.91
2022-08-07T01:08:08.962Z,97452.81
2022-08-07T01:13:12.776Z,97600.03
2022-08-07T01:18:19.733Z,97614.34
2022-08-07T01:23:32.684Z,97536.91
2022-08-07T01:28:48.366Z,97590.53
2022-08-07T01:33:55.051Z,97626.44
2022-08-07T01:39:00.393Z,97580.34
2022-08-07T01:44:04.292Z,97625.25
2022-08-07T01:49:07.532Z,97525.69
2022-08-07T01:54:36.323Z,97473.75
2022-08-07T01:59:48.250Z,97590.22
2022-08-07T02:05:04.880Z,97600.13
2022-08-07T02:10:10.030Z,97600.44
2022-08-07T02:15:23.143Z,97492.06
2022-08-07T02:20:32.058Z,97538.97
2022-08-07T02:26:31.267Z,97413.78
2022-08-07T02:31:28.589Z,97593.97
2022-08-07T02:36:32.881Z,97620.25
2022-08-07T02:41:37.773Z,97564.97
2022-08-07T02:46:46.807Z,97597.34
2022-08-07T02:51:58.042Z,97628.72
2022-08-07T02:57:03.341Z,97607.88
2022-08-07T03:02:11.052Z,97572.88
2022-08-07T03:07:16.568Z,97595.59
2022-08-07T03:12:31.026Z,97585.25
2022-08-07T03:17:52.891Z,97649.28
2022-08-07T03:22:59.350Z,97623.03
2022-08-07T03:28:37.697Z,97484.94
2022-08-07T03:33:39.898Z,97580.19
2022-08-07T03:38:44.988Z,97623.81
2022-08-07T03:43:57.188Z,97652.41
2022-08-07T03:49:02.596Z,97645.69
2022-08-07T03:54:35.746Z,97596.13
2022-08-07T03:59:33.335Z,97678.66
2022-08-07T04:04:37.416Z,97634.03
2022-08-07T04:09:45.444Z,97686.19
2022-08-07T04:14:55.249Z,97688.47
2022-08-07T04:19:59.873Z,97645.00
2022-08-07T04:25:08.866Z,97710.09
2022-08-07T04:30:43.570Z,97626.81
2022-08-07T04:35:58.634Z,97625.66
2022-08-07T04:41:01.361Z,97621.41
2022-08-07T04:47:04.240Z,97712.75
2022-08-07T04:52:14.716Z,97706.69
2022-08-07T04:58:27.435Z,97707.00
2022-08-07T05:03:17.082Z,97720.34
2022-08-07T05:09:01.049Z,97722.47
2022-08-07T05:14:55.622Z,97725.72
2022-08-07T05:19:45.031Z,97718.91
2022-08-07T05:24:51.910Z,97722.03
2022-08-07T05:29:55.286Z,97597.25
2022-08-07T05:34:59.993Z,97704.06
2022-08-07T05:40:18.366Z,97649.75
2022-08-07T05:45:46.093Z,97647.88
2022-08-07T05:50:45.763Z,97727.72
2022-08-07T05:56:02.075Z,97723.69
2022-08-07T06:01:10.726Z,97698.22
2022-08-07T06:06:18.906Z,97633.03
2022-08-07T06:11:22.360Z,97698.16
2022-08-07T06:16:32.563Z,97663.00
2022-08-07T06:22:16.075Z,97642.19
2022-08-07T06:26:59.565Z,97735.94
2022-08-07T06:32:06.635Z,97569.78
2022-08-07T06:37:11.317Z,97675.22
2022-08-07T06:42:33.188Z,97667.34
2022-08-07T06:47:38.754Z,97694.81
2022-08-07T06:53:04.106Z,97719.94
2022-08-07T06:58:10.673Z,97674.22
2022-08-07T07:03:17.039Z,97646.13
2022-08-07T07:08:26.487Z,97724.13
2022-08-07T07:13:55.440Z,97637.75
2022-08-07T07:19:56.262Z,97666.72
2022-08-07T07:24:27.721Z,97616.41
2022-08-07T07:29:55.815Z,97609.75
2022-08-07T07:35:04.069Z,97628.41
2022-08-07T07:40:15.207Z,97645.22
2022-08-07T07:45:21.038Z,97616.53
2022-08-07T07:50:44.079Z,97486.66
2022-08-07T07:55:57.533Z,97605.16
2022-08-07T08:02:03.296Z,97603.25
2022-08-07T08:06:28.109Z,97672.34
2022-08-07T08:12:00.008Z,97573.03
2022-08-07T08:17:55.576Z,97636.34
2022-08-07T08:22:56.099Z,97610.66
2022-08-07T08:28:04.274Z,97703.25
2022-08-07T08:33:10.281Z,97693.78
2022-08-07T08:38:20.670Z,97630.03
2022-08-07T08:43:42.762Z,97727.31
2022-08-07T08:49:10.883Z,97664.66
2022-08-07T08:54:27.349Z,97747.47
2022-08-07T08:59:42.357Z,97754.44
2022-08-07T09:04:59.065Z,97754.59
2022-08-07T09:10:30.204Z,97738.00
2022-08-07T09:16:25.379Z,97729.19
2022-08-07T09:21:58.549Z,97752.09
2022-08-07T09:27:09.005Z,97744.44
2022-08-07T09:32:31.067Z,97760.94
2022-08-07T09:38:10.245Z,97753.94
2022-08-07T09:50:01.835Z,97726.63
2022-08-07T09:55:29.713Z,97736.13
2022-08-07T10:05:59.800Z,97747.44
2022-08-07T10:12:01.579Z,97573.22
2022-08-07T10:17:25.004Z,97706.34
2022-08-07T10:23:02.620Z,97721.22
2022-08-07T10:33:03.975Z,97667.34
2022-08-07T10:38:35.725Z,97721.66
2022-08-07T10:44:07.597Z,97719.06
2022-08-07T10:49:49.956Z,97664.16
2022-08-07T10:55:07.902Z,97730.72
2022-08-07T11:00:39.423Z,97676.31
2022-08-07T11:06:18.319Z,97706.56
2022-08-07T11:11:35.745Z,97699.69
2022-08-07T11:16:54.814Z,97596.34
2022-08-07T11:22:11.213Z,97701.84
2022-08-07T11:28:00.836Z,97694.94
2022-08-07T11:33:08.094Z,97662.28
2022-08-07T11:38:32.668Z,97663.91
2022-08-07T11:44:11.138Z,97621.81
2022-08-07T11:50:30.331Z,97645.47
2022-08-07T11:55:19.002Z,97632.31
2022-08-07T12:01:02.501Z,97637.56
2022-08-07T12:06:37.424Z,97629.66
2022-08-07T12:12:09.220Z,97582.91
2022-08-07T12:17:20.389Z,97383.34
2022-08-07T12:22:58.294Z,97623.31
2022-08-07T12:28:16.937Z,97632.38
2022-08-07T12:33:56.690Z,97564.09
2022-08-07T12:38:58.947Z,97626.31
2022-08-07T12:44:10.406Z,97620.22
2022-08-07T12:49:48.485Z,97549.69
2022-08-07T12:55:19.981Z,97631.03
2022-08-07T13:00:32.777Z,97413.84
2022-08-07T13:06:26.912Z,97551.66
2022-08-07T13:12:02.035Z,97618.59
2022-08-07T13:17:14.211Z,97616.88
2022-08-07T13:22:35.616Z,97396.47
2022-08-07T13:28:12.603Z,97583.00
2022-08-07T13:34:30.769Z,97576.78
2022-08-07T13:39:49.683Z,97567.75
2022-08-07T13:44:39.711Z,97545.16
2022-08-07T13:50:34.180Z,97409.97
2022-08-07T13:55:19.532Z,97475.06
2022-08-07T14:00:50.355Z,97446.84
2022-08-07T14:05:59.380Z,97495.16
2022-08-07T14:11:15.313Z,97520.75
2022-08-07T14:16:27.257Z,97351.56
2022-08-07T14:22:01.120Z,97426.16
2022-08-07T14:27:16.111Z,97449.22
2022-08-07T14:32:42.120Z,97541.88
2022-08-07T14:38:05.751Z,97520.66
2022-08-07T14:43:57.572Z,97515.47
2022-08-07T14:48:42.461Z,97482.28
2022-08-07T14:54:08.980Z,97310.59
2022-08-07T15:04:41.932Z,97351.13
2022-08-07T15:15:30.592Z,97412.94
2022-08-07T15:20:55.154Z,97448.16
2022-08-07T15:26:03.093Z,97491.41
2022-08-07T15:31:10.380Z,97493.56
2022-08-07T15:36:26.249Z,97460.59
2022-08-07T15:52:51.745Z,97381.97
2022-08-07T15:58:00.332Z,97401.81
2022-08-07T16:03:22.098Z,97474.25
2022-08-07T16:08:41.475Z,97501.16
2022-08-07T16:14:04.320Z,97498.31
2022-08-07T16:19:19.710Z,97500.09
2022-08-07T16:24:56.379Z,97383.44
2022-08-07T16:30:31.522Z,97421.44
2022-08-07T16:35:56.954Z,97419.78
2022-08-07T16:41:29.538Z,97497.59
2022-08-07T16:47:56.515Z,97506.91
2022-08-07T16:53:20.607Z,97517.63
2022-08-07T16:59:10.889Z,97516.19
2022-08-07T17:04:58.880Z,97524.22
2022-08-07T17:10:32.317Z,97472.16
2022-08-07T17:16:00.308Z,97529.94
2022-08-07T17:21:18.944Z,97463.38
2022-08-07T17:26:49.724Z,97518.97
2022-08-07T17:32:30.595Z,97516.53
2022-08-07T17:38:06.037Z,97537.41
2022-08-07T17:43:18.560Z,97520.91
2022-08-07T17:48:31.047Z,97441.63
2022-08-07T17:54:06.379Z,97538.81
2022-08-07T17:59:42.923Z,97505.75
2022-08-07T18:04:56.820Z,97485.41
2022-08-07T18:10:06.327Z,97509.00
2022-08-07T18:15:23.642Z,97429.22
2022-08-07T18:21:04.569Z,97440.03
2022-08-07T18:26:15.236Z,97521.34
2022-08-07T18:31:33.879Z,97502.84
2022-08-07T18:36:53.846Z,97461.88
2022-08-07T18:42:13.285Z,97551.88
2022-08-07T18:47:44.467Z,97491.22
2022-08-07T18:53:06.096Z,97525.69
2022-08-07T18:58:51.163Z,97538.41
2022-08-07T19:04:28.146Z,97559.47
2022-08-07T19:10:04.559Z,97555.22
2022-08-07T19:16:02.803Z,97566.97
2022-08-07T19:21:08.998Z,97563.88
2022-08-07T19:26:24.007Z,97578.81
2022-08-07T19:32:01.158Z,97608.66
2022-08-07T19:37:10.102Z,97465.28
2022-08-07T19:42:40.206Z,97510.25
2022-08-07T19:47:44.908Z,97533.16
2022-08-07T19:52:58.541Z,97603.38
2022-08-07T19:58:14.247Z,97528.47
2022-08-07T20:03:35.296Z,97583.72
2022-08-07T20:08:48.756Z,97587.53
2022-08-07T20:13:55.925Z,97507.66
2022-08-07T20:19:04.375Z,97570.53
2022-08-07T20:24:15.524Z,97591.78
2022-08-07T20:29:48.031Z,97592.97
2022-08-07T20:34:51.178Z,97607.38
2022-08-07T20:40:04.188Z,97500.06
2022-08-07T20:45:32.997Z,97594.78
2022-08-07T20:50:34.062Z,97506.59
2022-08-07T20:55:38.716Z,97603.25
2022-08-07T21:00:46.859Z,97494.78
2022-08-07T21:06:22.369Z,97551.56
2022-08-07T21:11:46.173Z,97580.63
2022-08-07T21:18:00.721Z,97499.88
2022-08-07T21:22:28.214Z,97600.97
2022-08-07T21:27:53.846Z,97600.31
2022-08-07T21:33:12.337Z,97603.28
2022-08-07T21:38:29.333Z,97600.75
2022-08-07T21:44:28.564Z,97594.78
2022-08-07T21:50:16.601Z,97552.88
2022-08-07T21:55:29.973Z,97491.69
2022-08-07T22:00:34.476Z,97546.59
2022-08-07T22:06:01.325Z,97587.19
2022-08-07T22:11:06.962Z,97568.47
2022-08-07T22:16:42.880Z,97520.22
2022-08-07T22:22:02.652Z,97574.25
2022-08-07T22:28:07.489Z,97568.25
2022-08-07T22:33:15.039Z,97550.75
2022-08-07T22:38:39.994Z,97577.84
2022-08-07T22:43:56.931Z,97501.41
2022-08-07T22:49:16.148Z,97575.78
2022-08-07T22:54:48.849Z,97578.47
2022-08-07T23:00:14.990Z,97590.03
2022-08-07T23:06:07.065Z,97580.50
2022-08-07T23:11:41.164Z,97581.50
2022-08-07T23:16:54.920Z,97587.16
2022-08-07T23:22:23.892Z,97470.25
2022-08-07T23:27:34.132Z,97575.41
2022-08-07T23:34:21.311Z,97564.72
2022-08-07T23:38:19.390Z,97530.50
2022-08-07T23:43:44.924Z,97539.28
2022-08-07T23:49:03.763Z,97552.06
2022-08-07T23:54:19.985Z,97548.81
